Time;durP1;ratioP1;P1;durP2;ratioP2;P2;SDS_P1;SDS_P2;PMS_P1;PMS_P2;Temp;Humidity;BMP_temperature;BMP_pressure;BME280_temperature;BME280_humidity;BME280_pressure;Samples;Min_cycle;Max_cycle;Signal;HPM_P1;HPM_P2
2023/08/23 00:01:50;;;;;;;0.20;0.10;;;;;;;;;;5023873;28;20455;-84
2023/08/23 00:04:19;;;;;;;0.85;0.80;;;;;;;;;;5035972;28;20120;-85
2023/08/23 00:06:45;;;;;;;0.20;0.10;;;;;;;;;;5018426;28;20040;-84
2023/08/23 00:09:11;;;;;;;0.30;0.25;;;;;;;;;;5034877;28;20560;-85
2023/08/23 00:11:37;;;;;;;0.20;0.00;;;;;;;;;;5021935;28;20517;-84
2023/08/23 00:14:03;;;;;;;0.20;0.20;;;;;;;;;;5022306;28;20076;-84
2023/08/23 00:16:29;;;;;;;0.43;0.30;;;;;;;;;;5043269;28;20044;-83
2023/08/23 00:18:57;;;;;;;0.20;0.10;;;;;;;;;;5024933;28;20124;-83
2023/08/23 00:21:24;;;;;;;0.20;0.10;;;;;;;;;;5034872;28;20056;-84
2023/08/23 00:23:50;;;;;;;0.20;0.00;;;;;;;;;;5016284;28;20056;-84
2023/08/23 00:26:16;;;;;;;0.20;0.20;;;;;;;;;;5034904;28;20026;-84
2023/08/23 00:28:43;;;;;;;0.20;0.10;;;;;;;;;;5039828;28;20034;-84
2023/08/23 00:31:09;;;;;;;0.20;0.10;;;;;;;;;;5044727;22;20040;-84
2023/08/23 00:33:35;;;;;;;0.52;0.30;;;;;;;;;;5016946;28;20576;-83
2023/08/23 00:36:02;;;;;;;0.20;0.10;;;;;;;;;;5036728;28;20540;-84
2023/08/23 00:38:28;;;;;;;0.20;0.00;;;;;;;;;;5040073;28;20102;-84
2023/08/23 00:40:54;;;;;;;0.20;0.10;;;;;;;;;;5017123;28;20037;-84
2023/08/23 00:43:20;;;;;;;0.20;0.10;;;;;;;;;;5015387;28;20044;-84
2023/08/23 00:45:46;;;;;;;0.20;0.10;;;;;;;;;;5016773;28;20053;-84
2023/08/23 00:48:16;;;;;;;0.40;0.20;;;;;;;;;;5001219;28;20037;-87
2023/08/23 00:50:43;;;;;;;0.20;0.00;;;;;;;;;;5017738;28;20107;-84
2023/08/23 00:53:10;;;;;;;0.20;0.10;;;;;;;;;;5014061;28;20056;-84
2023/08/23 00:55:42;;;;;;;0.20;0.10;;;;;;;;;;5004828;28;20048;-84
2023/08/23 00:58:14;;;;;;;0.20;0.10;;;;;;;;;;5000570;28;20050;-84
2023/08/23 01:00:41;;;;;;;0.20;0.10;;;;;;;;;;5006249;28;20034;-84
2023/08/23 01:03:07;;;;;;;0.20;0.10;;;;;;;;;;5003814;28;20074;-84
2023/08/23 01:05:46;;;;;;;0.20;0.10;;;;;;;;;;4997067;28;20160;-84
2023/08/23 01:08:32;;;;;;;0.20;0.10;;;;;;;;;;5006753;28;20124;-84
2023/08/23 01:11:24;;;;;;;0.20;0.10;;;;;;;;;;4974985;28;20133;-84
2023/08/23 01:13:50;;;;;;;0.20;0.10;;;;;;;;;;4999426;28;20123;-86
2023/08/23 01:16:16;;;;;;;0.20;0.10;;;;;;;;;;5003483;28;20080;-84
2023/08/23 01:18:43;;;;;;;0.20;0.10;;;;;;;;;;5005937;28;20039;-84
2023/08/23 01:21:09;;;;;;;0.20;0.10;;;;;;;;;;5018294;28;20033;-85
2023/08/23 01:23:36;;;;;;;0.20;0.10;;;;;;;;;;5004116;28;20034;-84
2023/08/23 01:26:02;;;;;;;0.20;0.08;;;;;;;;;;5006018;28;20041;-85
2023/08/23 01:28:30;;;;;;;0.20;0.10;;;;;;;;;;5006342;28;20045;-84
2023/08/23 01:30:59;;;;;;;0.20;0.10;;;;;;;;;;5005279;28;20049;-84
2023/08/23 01:33:39;;;;;;;0.50;0.28;;;;;;;;;;5015257;28;20041;-85
2023/08/23 01:36:14;;;;;;;0.20;0.00;;;;;;;;;;5020083;28;20041;-84
2023/08/23 01:38:40;;;;;;;0.20;0.13;;;;;;;;;;5006972;28;20045;-84
2023/08/23 01:41:07;;;;;;;0.20;0.10;;;;;;;;;;5005566;28;20127;-83
2023/08/23 01:43:33;;;;;;;0.20;0.00;;;;;;;;;;5019830;28;20048;-83
2023/08/23 01:45:59;;;;;;;0.20;0.10;;;;;;;;;;5002653;28;20033;-84
2023/08/23 01:48:34;;;;;;;0.20;0.10;;;;;;;;;;5003211;28;20045;-85
2023/08/23 01:51:04;;;;;;;0.20;0.10;;;;;;;;;;5019652;28;20073;-83
2023/08/23 01:53:35;;;;;;;0.20;0.10;;;;;;;;;;5012995;28;20048;-84
2023/08/23 01:56:01;;;;;;;0.20;0.10;;;;;;;;;;5020426;28;20045;-86
2023/08/23 01:58:33;;;;;;;0.20;0.08;;;;;;;;;;5015364;28;20049;-83
2023/08/23 02:00:59;;;;;;;0.20;0.10;;;;;;;;;;5020633;28;20038;-83
2023/08/23 02:03:26;;;;;;;0.20;0.10;;;;;;;;;;5006376;28;20057;-83
2023/08/23 02:05:55;;;;;;;0.20;0.10;;;;;;;;;;5020363;28;20033;-83
2023/08/23 02:08:21;;;;;;;0.20;0.20;;;;;;;;;;5022137;28;20049;-84
2023/08/23 02:10:47;;;;;;;0.20;0.10;;;;;;;;;;5011921;23;20104;-78
2023/08/23 02:13:13;;;;;;;0.20;0.00;;;;;;;;;;4994093;28;20044;-78
2023/08/23 02:15:39;;;;;;;0.20;0.10;;;;;;;;;;4996402;28;20034;-78
2023/08/23 02:18:05;;;;;;;0.20;0.10;;;;;;;;;;4996638;28;20033;-78
2023/08/23 02:20:31;;;;;;;0.20;0.00;;;;;;;;;;4977216;28;20585;-78
2023/08/23 02:22:57;;;;;;;0.20;0.10;;;;;;;;;;4993615;28;20497;-78
2023/08/23 02:25:23;;;;;;;0.20;0.08;;;;;;;;;;4979198;28;20041;-78
2023/08/23 02:27:49;;;;;;;0.20;0.20;;;;;;;;;;4994490;28;20410;-78
2023/08/23 02:30:15;;;;;;;0.20;0.10;;;;;;;;;;4995573;28;20052;-78
2023/08/23 02:32:41;;;;;;;0.30;0.13;;;;;;;;;;4982725;28;20040;-78
2023/08/23 02:35:07;;;;;;;0.50;0.22;;;;;;;;;;4987807;28;20779;-78
2023/08/23 02:37:33;;;;;;;0.20;0.00;;;;;;;;;;4994217;28;20172;-78
2023/08/23 02:39:59;;;;;;;0.20;0.10;;;;;;;;;;4978233;28;20172;-78
2023/08/23 02:42:25;;;;;;;0.20;0.10;;;;;;;;;;4997163;28;20136;-78
2023/08/23 02:44:51;;;;;;;0.20;0.10;;;;;;;;;;4995942;28;20033;-78
2023/08/23 02:47:17;;;;;;;0.22;0.13;;;;;;;;;;4995904;28;20029;-78
2023/08/23 02:49:43;;;;;;;0.20;0.10;;;;;;;;;;4984284;28;20052;-78
2023/08/23 02:52:09;;;;;;;0.20;0.10;;;;;;;;;;4994067;28;20233;-79
2023/08/23 02:54:35;;;;;;;0.20;0.10;;;;;;;;;;4979483;28;20045;-78
2023/08/23 02:57:01;;;;;;;0.20;0.03;;;;;;;;;;5001375;28;20048;-79
2023/08/23 02:59:28;;;;;;;0.20;0.10;;;;;;;;;;4999760;28;20041;-79
2023/08/23 03:01:54;;;;;;;0.20;0.10;;;;;;;;;;4975019;28;20041;-79
2023/08/23 03:04:20;;;;;;;0.20;0.10;;;;;;;;;;4983549;28;20057;-79
2023/08/23 03:06:45;;;;;;;0.20;0.10;;;;;;;;;;5003618;28;20042;-79
2023/08/23 03:09:12;;;;;;;0.20;0.10;;;;;;;;;;4999765;28;20052;-79
2023/08/23 03:11:38;;;;;;;0.25;0.15;;;;;;;;;;5000336;28;20053;-79
2023/08/23 03:14:04;;;;;;;0.20;0.10;;;;;;;;;;4986922;28;20042;-79
2023/08/23 03:16:30;;;;;;;0.20;0.10;;;;;;;;;;4990029;28;20128;-80
2023/08/23 03:18:56;;;;;;;0.30;0.20;;;;;;;;;;5012397;28;20073;-79
2023/08/23 03:21:22;;;;;;;0.20;0.10;;;;;;;;;;4992776;28;20624;-79
2023/08/23 03:23:48;;;;;;;0.20;0.10;;;;;;;;;;4989910;28;20502;-79
2023/08/23 03:26:14;;;;;;;0.20;0.10;;;;;;;;;;4995918;28;20517;-79
2023/08/23 03:28:40;;;;;;;0.20;0.10;;;;;;;;;;4994612;28;20092;-80
2023/08/23 03:31:06;;;;;;;0.20;0.17;;;;;;;;;;4979046;28;20132;-79
2023/08/23 03:33:32;;;;;;;0.20;0.10;;;;;;;;;;4982128;28;20072;-79
2023/08/23 03:35:58;;;;;;;0.57;0.10;;;;;;;;;;5011733;28;20107;-80
2023/08/23 03:38:24;;;;;;;0.20;0.10;;;;;;;;;;5002922;28;20679;-80
2023/08/23 03:40:54;;;;;;;0.20;0.10;;;;;;;;;;4984092;28;20037;-80
2023/08/23 03:43:20;;;;;;;0.20;0.10;;;;;;;;;;5003284;28;20056;-79
2023/08/23 03:45:50;;;;;;;0.20;0.00;;;;;;;;;;5003673;28;20136;-80
2023/08/23 03:48:16;;;;;;;0.20;0.13;;;;;;;;;;5007168;28;20051;-80
2023/08/23 03:50:42;;;;;;;0.20;0.10;;;;;;;;;;4999932;28;20126;-80
2023/08/23 03:53:08;;;;;;;0.20;0.10;;;;;;;;;;4990525;28;20636;-79
2023/08/23 03:55:36;;;;;;;0.20;0.10;;;;;;;;;;5013864;28;20052;-80
2023/08/23 03:58:02;;;;;;;0.20;0.20;;;;;;;;;;4996479;28;20048;-80
2023/08/23 04:00:28;;;;;;;0.20;0.10;;;;;;;;;;5012839;28;20037;-80
2023/08/23 04:02:54;;;;;;;0.20;0.10;;;;;;;;;;4994687;28;20038;-80
2023/08/23 04:05:21;;;;;;;0.20;0.00;;;;;;;;;;4996985;28;20029;-80
2023/08/23 04:07:47;;;;;;;0.20;0.10;;;;;;;;;;4983445;28;20441;-79
2023/08/23 04:10:13;;;;;;;0.20;0.10;;;;;;;;;;4977865;28;20042;-79
2023/08/23 04:12:39;;;;;;;0.20;0.10;;;;;;;;;;4998678;28;20041;-80
2023/08/23 04:15:05;;;;;;;0.20;0.20;;;;;;;;;;4999930;28;20038;-79
2023/08/23 04:17:31;;;;;;;0.50;0.20;;;;;;;;;;5001927;28;20383;-79
2023/08/23 04:19:57;;;;;;;0.20;0.10;;;;;;;;;;4976793;28;20546;-79
2023/08/23 04:22:23;;;;;;;0.20;0.10;;;;;;;;;;5007884;28;20044;-79
2023/08/23 04:24:51;;;;;;;0.20;0.10;;;;;;;;;;5002346;28;20042;-80
2023/08/23 04:27:17;;;;;;;0.30;0.20;;;;;;;;;;5014489;28;20029;-80
2023/08/23 04:29:43;;;;;;;0.28;0.20;;;;;;;;;;5015361;28;20388;-80
2023/08/23 04:32:12;;;;;;;0.30;0.22;;;;;;;;;;5018891;28;20030;-80
2023/08/23 04:34:38;;;;;;;0.40;0.20;;;;;;;;;;5015439;28;20071;-79
2023/08/23 04:37:06;;;;;;;0.20;0.10;;;;;;;;;;5001386;28;20473;-80
2023/08/23 04:39:32;;;;;;;0.20;0.10;;;;;;;;;;5002691;28;20038;-80
2023/08/23 04:41:58;;;;;;;0.22;0.22;;;;;;;;;;5014979;28;20032;-80
2023/08/23 04:44:26;;;;;;;0.20;0.10;;;;;;;;;;5011043;28;20041;-80
2023/08/23 04:46:52;;;;;;;0.50;0.20;;;;;;;;;;5018285;28;20091;-79
2023/08/23 04:49:19;;;;;;;0.20;0.10;;;;;;;;;;5018644;28;20045;-80
2023/08/23 04:51:45;;;;;;;0.20;0.10;;;;;;;;;;5019276;28;20038;-80
2023/08/23 04:54:11;;;;;;;0.45;0.30;;;;;;;;;;5003982;28;20064;-80
2023/08/23 04:56:37;;;;;;;0.50;0.25;;;;;;;;;;5009921;28;20045;-80
2023/08/23 04:59:03;;;;;;;0.30;0.20;;;;;;;;;;5007249;28;20124;-79
2023/08/23 05:01:29;;;;;;;0.20;0.20;;;;;;;;;;5008361;28;20072;-80
2023/08/23 05:03:55;;;;;;;0.20;0.10;;;;;;;;;;5005818;28;20087;-80
2023/08/23 05:06:21;;;;;;;0.60;0.20;;;;;;;;;;4989946;28;20082;-80
2023/08/23 05:08:47;;;;;;;0.20;0.15;;;;;;;;;;5009250;28;20152;-80
2023/08/23 05:11:13;;;;;;;0.20;0.15;;;;;;;;;;4989812;28;20517;-80
2023/08/23 05:13:39;;;;;;;0.20;0.08;;;;;;;;;;5005378;28;20037;-79
2023/08/23 05:16:05;;;;;;;0.20;0.10;;;;;;;;;;5010072;28;20033;-79
2023/08/23 05:18:31;;;;;;;0.20;0.10;;;;;;;;;;5009770;28;20241;-79
2023/08/23 05:21:02;;;;;;;0.30;0.22;;;;;;;;;;4990296;28;20072;-80
2023/08/23 05:23:28;;;;;;;0.20;0.10;;;;;;;;;;5010148;28;20049;-79
2023/08/23 05:25:55;;;;;;;0.20;0.17;;;;;;;;;;5011249;28;20096;-80
2023/08/23 05:28:21;;;;;;;0.30;0.30;;;;;;;;;;5006813;28;20046;-80
2023/08/23 05:30:48;;;;;;;0.20;0.20;;;;;;;;;;4995179;28;20046;-79
2023/08/23 05:33:14;;;;;;;0.20;0.10;;;;;;;;;;4995011;28;20339;-81
2023/08/23 05:35:41;;;;;;;0.20;0.10;;;;;;;;;;5013304;28;20053;-81
2023/08/23 05:38:07;;;;;;;0.30;0.30;;;;;;;;;;5008579;28;20096;-80
2023/08/23 05:40:33;;;;;;;0.20;0.10;;;;;;;;;;5020087;28;20045;-80
2023/08/23 05:42:59;;;;;;;0.20;0.20;;;;;;;;;;5002985;28;20175;-80
2023/08/23 05:45:26;;;;;;;0.20;0.20;;;;;;;;;;4992077;28;20102;-79
2023/08/23 05:47:54;;;;;;;0.20;0.10;;;;;;;;;;4999876;28;20042;-79
2023/08/23 05:50:20;;;;;;;0.20;0.10;;;;;;;;;;5002971;28;20053;-79
2023/08/23 05:52:47;;;;;;;0.20;0.17;;;;;;;;;;5007840;28;20033;-79
2023/08/23 05:55:13;;;;;;;0.20;0.10;;;;;;;;;;5007626;28;20037;-79
2023/08/23 05:57:39;;;;;;;0.30;0.10;;;;;;;;;;5010602;28;20073;-79
2023/08/23 06:00:05;;;;;;;0.52;0.47;;;;;;;;;;5007641;28;20100;-79
2023/08/23 06:02:32;;;;;;;0.20;0.10;;;;;;;;;;5006149;28;20278;-80
2023/08/23 06:04:58;;;;;;;0.30;0.10;;;;;;;;;;5005689;28;20068;-80
2023/08/23 06:07:24;;;;;;;0.40;0.30;;;;;;;;;;5004059;28;20041;-79
2023/08/23 06:09:50;;;;;;;0.20;0.10;;;;;;;;;;5006231;28;20061;-78
2023/08/23 06:12:16;;;;;;;0.20;0.10;;;;;;;;;;5003472;28;20075;-80
2023/08/23 06:14:42;;;;;;;0.20;0.10;;;;;;;;;;4992169;28;20100;-79
2023/08/23 06:17:08;;;;;;;0.30;0.20;;;;;;;;;;5011727;28;20041;-80
2023/08/23 06:19:34;;;;;;;0.60;0.20;;;;;;;;;;5006999;28;20052;-79
2023/08/23 06:22:00;;;;;;;0.25;0.20;;;;;;;;;;5006838;28;20105;-80
2023/08/23 06:24:26;;;;;;;0.20;0.10;;;;;;;;;;5014639;28;20042;-80
2023/08/23 06:26:53;;;;;;;0.45;0.15;;;;;;;;;;5017807;28;20364;-80
2023/08/23 06:29:19;;;;;;;0.40;0.40;;;;;;;;;;5010238;28;20049;-81
2023/08/23 06:31:46;;;;;;;0.25;0.20;;;;;;;;;;5017184;28;20113;-80
2023/08/23 06:34:12;;;;;;;0.20;0.10;;;;;;;;;;5002086;28;20025;-79
2023/08/23 06:36:38;;;;;;;0.60;0.30;;;;;;;;;;5003013;28;20575;-79
2023/08/23 06:39:04;;;;;;;0.38;0.38;;;;;;;;;;5012592;28;20061;-79
2023/08/23 06:41:30;;;;;;;0.20;0.10;;;;;;;;;;5006945;28;20064;-80
2023/08/23 06:44:02;;;;;;;0.20;0.10;;;;;;;;;;5017999;28;20458;-80
2023/08/23 06:46:28;;;;;;;0.90;0.50;;;;;;;;;;5014544;28;20052;-81
2023/08/23 06:48:55;;;;;;;0.20;0.10;;;;;;;;;;5022509;28;20030;-80
2023/08/23 06:51:21;;;;;;;0.73;0.25;;;;;;;;;;5021687;28;20042;-81
2023/08/23 06:53:48;;;;;;;0.55;0.40;;;;;;;;;;5016702;28;20632;-84
2023/08/23 06:56:14;;;;;;;1.08;0.30;;;;;;;;;;5028478;28;20041;-80
2023/08/23 06:58:40;;;;;;;0.90;0.30;;;;;;;;;;5005832;28;20045;-82
2023/08/23 07:01:07;;;;;;;0.57;0.40;;;;;;;;;;5007834;28;20029;-81
2023/08/23 07:03:33;;;;;;;0.60;0.40;;;;;;;;;;5018262;28;20041;-81
2023/08/23 07:05:59;;;;;;;0.47;0.22;;;;;;;;;;5003867;28;20045;-81
2023/08/23 07:08:25;;;;;;;0.68;0.38;;;;;;;;;;4987735;28;20047;-80
2023/08/23 07:10:51;;;;;;;0.20;0.10;;;;;;;;;;5006152;28;20039;-80
2023/08/23 07:13:17;;;;;;;0.20;0.10;;;;;;;;;;5005051;28;20033;-81
2023/08/23 07:15:43;;;;;;;0.20;0.10;;;;;;;;;;5007830;28;20041;-80
2023/08/23 07:18:09;;;;;;;0.43;0.40;;;;;;;;;;5005992;28;20041;-83
2023/08/23 07:20:35;;;;;;;0.20;0.10;;;;;;;;;;5000894;28;20454;-81
2023/08/23 07:23:01;;;;;;;0.20;0.10;;;;;;;;;;4998384;28;20073;-79
2023/08/23 07:25:27;;;;;;;0.25;0.20;;;;;;;;;;5016852;28;20580;-81
2023/08/23 07:27:53;;;;;;;0.20;0.10;;;;;;;;;;4989826;28;20041;-82
2023/08/23 07:30:19;;;;;;;0.30;0.30;;;;;;;;;;4984360;28;20121;-80
2023/08/23 07:32:45;;;;;;;0.20;0.20;;;;;;;;;;5006058;28;20093;-82
2023/08/23 07:35:12;;;;;;;0.20;0.10;;;;;;;;;;5001111;28;20458;-83
2023/08/23 07:37:38;;;;;;;0.20;0.10;;;;;;;;;;5004281;28;20441;-82
2023/08/23 07:40:06;;;;;;;0.30;0.22;;;;;;;;;;5003587;28;20054;-84
2023/08/23 07:42:32;;;;;;;0.30;0.28;;;;;;;;;;4996482;28;20043;-83
2023/08/23 07:44:58;;;;;;;0.20;0.10;;;;;;;;;;4995767;28;20072;-81
2023/08/23 07:47:24;;;;;;;0.30;0.25;;;;;;;;;;4995280;28;20449;-82
2023/08/23 07:49:51;;;;;;;0.30;0.30;;;;;;;;;;4975047;28;20049;-81
2023/08/23 07:52:17;;;;;;;0.20;0.20;;;;;;;;;;4997221;28;20038;-81
2023/08/23 07:54:43;;;;;;;0.95;0.22;;;;;;;;;;4993965;28;20041;-81
2023/08/23 07:57:09;;;;;;;0.20;0.10;;;;;;;;;;5000745;28;20048;-80
2023/08/23 07:59:35;;;;;;;0.20;0.10;;;;;;;;;;4998113;28;20052;-81
2023/08/23 08:02:01;;;;;;;0.20;0.10;;;;;;;;;;4998252;28;20037;-83
2023/08/23 08:04:29;;;;;;;0.20;0.10;;;;;;;;;;4990638;28;20076;-81
2023/08/23 08:06:56;;;;;;;0.20;0.10;;;;;;;;;;4999173;28;21207;-82
2023/08/23 08:09:22;;;;;;;0.20;0.15;;;;;;;;;;5009530;28;20065;-80
2023/08/23 08:11:54;;;;;;;0.25;0.25;;;;;;;;;;5026481;23;20041;-86
2023/08/23 08:14:22;;;;;;;0.20;0.10;;;;;;;;;;5023598;28;20517;-86
2023/08/23 08:16:51;;;;;;;0.20;0.15;;;;;;;;;;5034592;28;20044;-85
2023/08/23 08:19:17;;;;;;;0.28;0.25;;;;;;;;;;5028649;28;20101;-86
2023/08/23 08:24:37;;;;;;;0.20;0.10;;;;;;;;;;5051417;28;20050;-85
2023/08/23 08:27:03;;;;;;;0.20;0.10;;;;;;;;;;5038222;28;20617;-87
2023/08/23 08:29:50;;;;;;;0.20;0.10;;;;;;;;;;5045109;28;20040;-85
2023/08/23 08:32:18;;;;;;;0.63;0.47;;;;;;;;;;5056056;28;20130;-85
2023/08/23 08:34:52;;;;;;;0.20;0.05;;;;;;;;;;5058363;28;20489;-86
2023/08/23 08:37:27;;;;;;;0.47;0.20;;;;;;;;;;5055082;28;20044;-84
2023/08/23 08:39:54;;;;;;;0.20;0.10;;;;;;;;;;5047008;28;20053;-86
2023/08/23 08:42:20;;;;;;;1.17;0.40;;;;;;;;;;5037432;28;20942;-87
2023/08/23 08:44:47;;;;;;;0.20;0.10;;;;;;;;;;5056616;28;20041;-85
2023/08/23 08:47:25;;;;;;;0.38;0.30;;;;;;;;;;5057905;28;20147;-85
2023/08/23 08:49:53;;;;;;;0.20;0.10;;;;;;;;;;5058963;28;20048;-86
2023/08/23 08:52:20;;;;;;;0.20;0.10;;;;;;;;;;5058196;28;20087;-85
2023/08/23 08:54:48;;;;;;;0.68;0.30;;;;;;;;;;5059781;28;20123;-87
2023/08/23 08:57:20;;;;;;;0.20;0.10;;;;;;;;;;5043911;28;20102;-86
2023/08/23 08:59:46;;;;;;;0.20;0.20;;;;;;;;;;5057007;28;20139;-84
2023/08/23 09:02:23;;;;;;;0.20;0.03;;;;;;;;;;5046626;28;20029;-85
2023/08/23 09:04:51;;;;;;;0.20;0.10;;;;;;;;;;5062459;28;20552;-87
2023/08/23 09:07:17;;;;;;;0.30;0.10;;;;;;;;;;5056660;28;20229;-85
2023/08/23 09:09:51;;;;;;;0.20;0.10;;;;;;;;;;5054521;28;20136;-86
2023/08/23 09:12:17;;;;;;;0.20;0.13;;;;;;;;;;5045180;28;20485;-85
2023/08/23 09:15:03;;;;;;;0.20;0.10;;;;;;;;;;5048196;28;20159;-86
2023/08/23 09:17:38;;;;;;;0.20;0.10;;;;;;;;;;5061051;28;20037;-84
2023/08/23 09:20:16;;;;;;;0.20;0.10;;;;;;;;;;5057014;28;20037;-87
2023/08/23 09:22:42;;;;;;;0.20;0.15;;;;;;;;;;5036699;28;20513;-86
2023/08/23 09:25:09;;;;;;;0.20;0.10;;;;;;;;;;5052513;28;20072;-83
2023/08/23 09:27:35;;;;;;;0.20;0.10;;;;;;;;;;5045684;28;20036;-84
2023/08/23 09:30:04;;;;;;;0.20;0.10;;;;;;;;;;5059166;28;20052;-89
2023/08/23 09:32:30;;;;;;;0.30;0.15;;;;;;;;;;5054917;28;20102;-85
2023/08/23 09:35:08;;;;;;;0.22;0.13;;;;;;;;;;5055391;28;20059;-84
2023/08/23 09:37:34;;;;;;;0.20;0.05;;;;;;;;;;5054448;28;20051;-86
2023/08/23 09:40:00;;;;;;;0.20;0.00;;;;;;;;;;5045190;28;20102;-85
2023/08/23 09:42:43;;;;;;;0.20;0.10;;;;;;;;;;5038956;28;20047;-87
2023/08/23 09:45:16;;;;;;;0.20;0.10;;;;;;;;;;5056972;28;20119;-85
2023/08/23 09:47:46;;;;;;;0.35;0.20;;;;;;;;;;5055991;28;20269;-86
2023/08/23 09:50:35;;;;;;;0.20;0.10;;;;;;;;;;5045040;28;20485;-87
2023/08/23 09:53:04;;;;;;;0.55;0.55;;;;;;;;;;5048983;28;20527;-88
2023/08/23 09:55:32;;;;;;;0.20;0.10;;;;;;;;;;5042533;28;20127;-85
2023/08/23 09:58:00;;;;;;;0.20;0.10;;;;;;;;;;5042288;28;20044;-85
2023/08/23 10:00:29;;;;;;;0.20;0.20;;;;;;;;;;5057327;28;20072;-84
2023/08/23 10:02:59;;;;;;;0.20;0.10;;;;;;;;;;5038541;28;20103;-85
2023/08/23 10:05:28;;;;;;;0.20;0.10;;;;;;;;;;5037696;28;20025;-86
2023/08/23 10:07:55;;;;;;;0.30;0.13;;;;;;;;;;5046632;28;20060;-84
2023/08/23 10:10:28;;;;;;;0.20;0.10;;;;;;;;;;5044157;28;20508;-86
2023/08/23 10:12:59;;;;;;;0.47;0.17;;;;;;;;;;5055305;28;20044;-86
2023/08/23 10:15:54;;;;;;;0.57;0.38;;;;;;;;;;5059966;28;20063;-86
2023/08/23 10:18:35;;;;;;;0.20;0.20;;;;;;;;;;5047209;28;20062;-84
2023/08/23 10:21:08;;;;;;;0.20;0.00;;;;;;;;;;5042770;28;20473;-86
2023/08/23 10:23:36;;;;;;;;;;;;;;;;;;5053796;28;20486;-84
2023/08/23 10:26:02;;;;;;;0.30;0.20;;;;;;;;;;5056675;28;20358;-84
2023/08/23 10:28:50;;;;;;;0.20;0.08;;;;;;;;;;5034710;28;20405;-85
2023/08/23 10:31:27;;;;;;;0.20;0.10;;;;;;;;;;5054362;28;20495;-85
2023/08/23 10:34:03;;;;;;;0.20;0.10;;;;;;;;;;5045275;28;20055;-84
2023/08/23 10:36:42;;;;;;;0.20;0.00;;;;;;;;;;5039889;28;20053;-85
2023/08/23 10:39:12;;;;;;;0.20;0.10;;;;;;;;;;5056431;28;20048;-86
2023/08/23 10:41:46;;;;;;;0.20;0.00;;;;;;;;;;5042727;28;20061;-85
2023/08/23 10:44:21;;;;;;;0.20;0.10;;;;;;;;;;5042701;28;20048;-84
2023/08/23 10:46:58;;;;;;;0.20;0.15;;;;;;;;;;5054534;28;20037;-85
2023/08/23 10:49:25;;;;;;;0.20;0.10;;;;;;;;;;5055542;28;20052;-86
2023/08/23 10:51:56;;;;;;;0.20;0.08;;;;;;;;;;5043542;28;20055;-84
2023/08/23 10:54:26;;;;;;;0.20;0.10;;;;;;;;;;5040124;28;20045;-86
2023/08/23 10:56:52;;;;;;;2.38;0.75;;;;;;;;;;5041185;28;20041;-83
2023/08/23 10:59:18;;;;;;;0.22;0.20;;;;;;;;;;5039006;28;20048;-84
2023/08/23 11:01:45;;;;;;;0.20;0.10;;;;;;;;;;5041077;28;20036;-84
2023/08/23 11:04:14;;;;;;;0.20;0.13;;;;;;;;;;5043210;28;20051;-85
2023/08/23 11:06:40;;;;;;;0.20;0.10;;;;;;;;;;5045171;28;20039;-83
2023/08/23 11:09:09;;;;;;;0.20;0.10;;;;;;;;;;5041076;28;20542;-82
2023/08/23 11:11:35;;;;;;;0.30;0.20;;;;;;;;;;5052464;28;20081;-85
2023/08/23 11:14:03;;;;;;;0.20;0.00;;;;;;;;;;5055317;28;20049;-86
2023/08/23 11:16:31;;;;;;;0.20;0.10;;;;;;;;;;5040530;28;20436;-84
2023/08/23 11:18:57;;;;;;;0.20;0.10;;;;;;;;;;5043704;28;20135;-83
2023/08/23 11:21:31;;;;;;;0.20;0.20;;;;;;;;;;5041684;28;20044;-86
2023/08/23 11:23:57;;;;;;;0.20;0.20;;;;;;;;;;5041434;28;20086;-83
2023/08/23 11:26:23;;;;;;;0.20;0.15;;;;;;;;;;5054821;28;20204;-83
2023/08/23 11:28:55;;;;;;;0.22;0.22;;;;;;;;;;5056430;28;20213;-85
2023/08/23 11:31:48;;;;;;;0.20;0.10;;;;;;;;;;5042048;28;20054;-86
2023/08/23 11:34:15;;;;;;;0.25;0.17;;;;;;;;;;5051206;28;20051;-84
2023/08/23 11:36:45;;;;;;;0.28;0.15;;;;;;;;;;5054709;28;20090;-84
2023/08/23 11:39:13;;;;;;;0.20;0.10;;;;;;;;;;5042012;28;20056;-84
2023/08/23 11:41:45;;;;;;;0.75;0.20;;;;;;;;;;5054772;28;20334;-85
2023/08/23 11:44:16;;;;;;;0.20;0.20;;;;;;;;;;5059448;28;20063;-86
2023/08/23 11:46:53;;;;;;;0.20;0.10;;;;;;;;;;5054356;28;20067;-85
2023/08/23 11:49:28;;;;;;;0.20;0.20;;;;;;;;;;5037441;28;20045;-86
2023/08/23 11:52:10;;;;;;;0.55;0.30;;;;;;;;;;5058210;28;20513;-83
2023/08/23 11:54:54;;;;;;;0.68;0.30;;;;;;;;;;5051016;28;20418;-86
2023/08/23 11:57:27;;;;;;;0.30;0.20;;;;;;;;;;5036969;28;20089;-86
2023/08/23 11:59:54;;;;;;;0.20;0.10;;;;;;;;;;5041832;28;20065;-84
2023/08/23 12:02:20;;;;;;;0.20;0.10;;;;;;;;;;5051122;28;20040;-84
2023/08/23 12:04:46;;;;;;;0.30;0.20;;;;;;;;;;5052326;28;20044;-84
2023/08/23 12:07:13;;;;;;;0.20;0.10;;;;;;;;;;5040257;28;20049;-84
2023/08/23 12:09:48;;;;;;;11.70;0.52;;;;;;;;;;5052047;28;20398;-85
2023/08/23 12:12:19;;;;;;;0.30;0.20;;;;;;;;;;5041165;28;20043;-85
2023/08/23 12:14:48;;;;;;;0.22;0.20;;;;;;;;;;5041371;28;20049;-83
2023/08/23 12:17:14;;;;;;;0.20;0.10;;;;;;;;;;5039511;28;20036;-84
2023/08/23 12:19:41;;;;;;;0.20;0.20;;;;;;;;;;5053742;28;20090;-84
2023/08/23 12:22:10;;;;;;;0.20;0.10;;;;;;;;;;5052457;28;20044;-82
2023/08/23 12:24:36;;;;;;;0.20;0.10;;;;;;;;;;5056894;28;20044;-81
2023/08/23 12:27:02;;;;;;;0.20;0.10;;;;;;;;;;5036074;28;20382;-84
2023/08/23 12:29:28;;;;;;;0.20;0.10;;;;;;;;;;5045048;28;20044;-82
2023/08/23 12:32:14;;;;;;;0.20;0.10;;;;;;;;;;5053019;28;20531;-84
2023/08/23 12:34:46;;;;;;;0.20;0.10;;;;;;;;;;5048946;28;20041;-84
2023/08/23 12:37:12;;;;;;;0.30;0.30;;;;;;;;;;5040654;28;20033;-84
2023/08/23 12:39:38;;;;;;;0.20;0.10;;;;;;;;;;5058375;28;20036;-83
2023/08/23 12:42:07;;;;;;;0.40;0.20;;;;;;;;;;5052286;28;20036;-84
2023/08/23 12:44:34;;;;;;;0.20;0.20;;;;;;;;;;5035587;28;20045;-87
2023/08/23 12:47:06;;;;;;;0.20;0.17;;;;;;;;;;5037886;28;20460;-83
2023/08/23 12:49:32;;;;;;;0.28;0.22;;;;;;;;;;5054345;28;20250;-83
2023/08/23 12:51:58;;;;;;;0.20;0.10;;;;;;;;;;5036633;28;20044;-82
2023/08/23 12:54:45;;;;;;;0.20;0.10;;;;;;;;;;5053546;28;20569;-83
2023/08/23 12:57:10;;;;;;;0.20;0.10;;;;;;;;;;5050999;28;20120;-83
2023/08/23 12:59:36;;;;;;;0.20;0.10;;;;;;;;;;5054587;28;20118;-85
2023/08/23 13:02:03;;;;;;;0.20;0.10;;;;;;;;;;5051738;28;20836;-83
2023/08/23 13:04:29;;;;;;;0.40;0.30;;;;;;;;;;5034410;28;20136;-83
2023/08/23 13:07:01;;;;;;;1.27;0.52;;;;;;;;;;5040662;28;20078;-85
2023/08/23 13:09:27;;;;;;;0.30;0.25;;;;;;;;;;5040467;28;20044;-84
2023/08/23 13:11:53;;;;;;;0.20;0.10;;;;;;;;;;5051233;28;20148;-84
2023/08/23 13:14:19;;;;;;;0.30;0.20;;;;;;;;;;5054395;28;20121;-84
2023/08/23 13:16:45;;;;;;;0.20;0.10;;;;;;;;;;5051724;28;20449;-84
2023/08/23 13:19:11;;;;;;;0.20;0.20;;;;;;;;;;5040313;28;20037;-84
2023/08/23 13:21:38;;;;;;;0.20;0.15;;;;;;;;;;5054382;28;20045;-81
2023/08/23 13:24:04;;;;;;;0.20;0.10;;;;;;;;;;5039317;28;20045;-84
2023/08/23 13:26:30;;;;;;;0.30;0.20;;;;;;;;;;5039681;28;20530;-85
2023/08/23 13:28:56;;;;;;;0.20;0.20;;;;;;;;;;5055051;28;20044;-85
2023/08/23 13:31:25;;;;;;;3.40;0.47;;;;;;;;;;5053498;28;20094;-82
2023/08/23 13:33:51;;;;;;;0.40;0.30;;;;;;;;;;5055571;28;20158;-83
2023/08/23 13:36:20;;;;;;;1.10;0.60;;;;;;;;;;5055515;28;20531;-85
2023/08/23 13:38:49;;;;;;;0.20;0.17;;;;;;;;;;5050984;28;20140;-85
2023/08/23 13:41:18;;;;;;;0.20;0.17;;;;;;;;;;5048541;28;20515;-83
2023/08/23 13:43:44;;;;;;;0.20;0.10;;;;;;;;;;5064592;28;20508;-82
2023/08/23 13:46:10;;;;;;;0.20;0.10;;;;;;;;;;5049873;28;20041;-84
2023/08/23 13:48:36;;;;;;;0.20;0.10;;;;;;;;;;5042336;28;20044;-83
2023/08/23 13:51:03;;;;;;;0.45;0.30;;;;;;;;;;5063309;28;20043;-84
2023/08/23 13:53:29;;;;;;;0.20;0.00;;;;;;;;;;5066890;28;20520;-83
2023/08/23 13:55:55;;;;;;;0.20;0.10;;;;;;;;;;5075041;28;20512;-83
2023/08/23 13:58:21;;;;;;;0.20;0.10;;;;;;;;;;5062804;28;20119;-84
2023/08/23 14:00:47;;;;;;;0.20;0.05;;;;;;;;;;5051320;28;20155;-81
2023/08/23 14:03:13;;;;;;;0.20;0.15;;;;;;;;;;5067977;28;20058;-82
2023/08/23 14:05:39;;;;;;;0.47;0.47;;;;;;;;;;5050431;28;20466;-81
2023/08/23 14:08:05;;;;;;;0.20;0.15;;;;;;;;;;5068884;28;20043;-81
2023/08/23 14:10:34;;;;;;;0.22;0.20;;;;;;;;;;5050823;28;20036;-84
2023/08/23 14:13:00;;;;;;;0.32;0.30;;;;;;;;;;5073559;22;20032;-84
2023/08/23 14:15:29;;;;;;;0.20;0.10;;;;;;;;;;5040288;28;20066;-85
2023/08/23 14:17:55;;;;;;;0.40;0.20;;;;;;;;;;5042506;28;20035;-85
2023/08/23 14:20:21;;;;;;;0.20;0.10;;;;;;;;;;5042277;28;20036;-83
2023/08/23 14:22:47;;;;;;;0.20;0.20;;;;;;;;;;5036469;28;20044;-85
2023/08/23 14:25:15;;;;;;;0.20;0.10;;;;;;;;;;5024802;28;20056;-87
2023/08/23 14:27:41;;;;;;;4.15;1.10;;;;;;;;;;5021148;28;20164;-84
2023/08/23 14:30:08;;;;;;;0.20;0.08;;;;;;;;;;5042135;28;20067;-86
2023/08/23 14:32:34;;;;;;;0.20;0.10;;;;;;;;;;5016228;28;20041;-84
2023/08/23 14:35:00;;;;;;;0.20;0.15;;;;;;;;;;5040580;28;20175;-85
2023/08/23 14:37:26;;;;;;;0.20;0.10;;;;;;;;;;5030118;28;20421;-87
2023/08/23 14:39:52;;;;;;;0.20;0.10;;;;;;;;;;5032794;28;20100;-87
2023/08/23 14:42:19;;;;;;;0.22;0.20;;;;;;;;;;5029834;28;20041;-87
2023/08/23 14:44:45;;;;;;;0.20;0.10;;;;;;;;;;5008180;28;20152;-84
2023/08/23 14:47:11;;;;;;;0.20;0.20;;;;;;;;;;5017963;28;20607;-85
2023/08/23 14:49:37;;;;;;;0.20;0.10;;;;;;;;;;5027716;28;20037;-83
2023/08/23 14:52:03;;;;;;;0.20;0.10;;;;;;;;;;5013966;28;20056;-85